LDDULYTV

Guest
Details From LDDU - DUBROVNIK
To LYTV - Tivat
Flight Number -
Tags generated
Created
Modified
Stats Distance 22 nm / 42 km
Max Altitude 200 ft / 61 m
Waypoints 3
Social Downloads 0
Likes 0
Share VATSIM

Download

Looking for another format? Having issues loading an existing format? Contact us
Advertisement - Login to hide

Notes

Basic altitude profile: - Ascent Rate: 2500ft/min - Ascent Speed: 250kts - Cruise Altitude: 35000ft - Cruise Speed: 420kts - Descent Rate: 1500ft/min - Descent Speed: 250kts Options: - Use NATs: no - Use PACOTS: yes - Use low airways: yes - Use high airways: no

Route

LDDU DBK LYTV

ID Type Via Altitude Latitude Longitude Leg Dist Tot Dist Heading (true) Name
O LDDU APT - 0 ft / 0 m 42.56284˚ 18.26450˚ - 0 nm - DUBROVNIK
DBK VOR - 200 ft / 61 m 42.55384˚ 18.27743˚ 0 nm 0 nm 133° / 133° DUBROVNIK VOR-DME
O LYTV APT - 0 ft / 0 m 42.40466˚ 18.72329˚ 21 nm 22 nm 114° / 115° Tivat

Altitude Profile

Advertisement - Login to hide

LDDU

Details ICAO LDDU (DBV)
Name DUBROVNIK
Region Croatia
Timezone Europe/Zagreb (UTC+2.0)
Stats Elevation 527 ft / 161 m (AMSL)
Location 42.562840° 18.264499°
Runways 1
Magnetic Variation 4.146° E

METAR

LDDU 240400Z 06007KT CAVOK 16/13 Q1015 NOSIG

Decode

TAF

TAF LDDU 232325Z 2400/2500 02010KT CAVOK TX25/2413Z TN17/2404Z TEMPO 2400/2406 08008KT BECMG 2408/2410 29008KT PROB30 TEMPO 2411/2416 02015KT -TSRA FEW035CB SCT040 BECMG 2417/2419 02010KT

Decode

Departure Runways

ID Width Length Bearing (true) Bearing (mag) Surface Threshold Offset Overrun Length
12 148 ft / 45 m 10,803 ft / 3,293 m 118.30° 114.15° Asphalt 488 ft / 149 m 100 ft / 30 m
30 148 ft / 45 m 10,803 ft / 3,293 m 298.33° 294.18° Asphalt 0 ft / 0 m 100 ft / 30 m

LYTV

Details ICAO LYTV (TIV)
Name Tivat
Region Serbia and Montenegro
Timezone Europe/Podgorica (UTC+2.0)
Stats Elevation 20 ft / 6 m (AMSL)
Location 42.404657° 18.723295°
Runways 1
Magnetic Variation 4.209° E

METAR

LYTV 240400Z VRB02KT 9999 FEW020 15/14 Q1014 NOSIG

Decode

TAF

TAF LYTV 232300Z 2400/2424 VRB02KT 9999 FEW040 TX28/2412Z TN15/2403Z PROB30 TEMPO 2410/2416 VRB15KT 5000 TSRA FEW027CB SCT033

Decode

Destination Runways

ID Width Length Bearing (true) Bearing (mag) Surface Threshold Offset Overrun Length
14 148 ft / 45 m 8,206 ft / 2,501 m 139.03° 134.82° Asphalt 300 ft / 91 m 0 ft / 0 m
32 148 ft / 45 m 8,206 ft / 2,501 m 319.04° 314.83° Asphalt 300 ft / 91 m 0 ft / 0 m

Approach Navaids

Runway Type Ident Frequency Range Bearing (true) Bearing (mag) Slope Elevation
32 Localiser TIV 111.30 MHz 50 nm / 93 km 339.00° 334.79° - 56 ft / 17 m (AMSL)
32 DME TIV 111.30 MHz 18 nm / 33 km - - - 49 ft / 15 m (AMSL)

Popular Alternatives